createdAt,value
2023-02-21T00:01:35.808Z,7.67
2023-02-21T00:04:56.426Z,7.43
2023-02-21T00:08:17.036Z,7.17
2023-02-21T00:11:40.644Z,7.47
2023-02-21T00:15:01.258Z,7.90
2023-02-21T00:18:23.274Z,7.60
2023-02-21T00:21:46.773Z,7.37
2023-02-21T00:25:10.238Z,7.33
2023-02-21T00:28:30.747Z,7.47
2023-02-21T00:31:54.034Z,7.17
2023-02-21T00:35:15.732Z,7.50
2023-02-21T00:38:36.099Z,7.87
2023-02-21T00:41:56.421Z,8.73
2023-02-21T00:45:18.296Z,7.90
2023-02-21T00:48:41.929Z,8.20
2023-02-21T00:52:03.575Z,7.63
2023-02-21T00:55:24.994Z,7.93
2023-02-21T00:58:45.648Z,8.40
2023-02-21T01:02:06.143Z,8.57
2023-02-21T01:05:27.059Z,8.67
2023-02-21T01:08:48.796Z,8.67
2023-02-21T01:12:09.285Z,8.87
2023-02-21T01:15:30.049Z,9.20
2023-02-21T01:18:50.885Z,9.33
2023-02-21T01:22:11.392Z,9.40
2023-02-21T01:25:34.007Z,9.70
2023-02-21T01:28:54.546Z,9.57
2023-02-21T01:32:15.131Z,9.70
2023-02-21T01:35:35.579Z,10.53
2023-02-21T01:38:58.361Z,10.30
2023-02-21T01:42:20.212Z,10.53
2023-02-21T01:46:01.981Z,12.00
2023-02-21T01:49:26.488Z,10.20
2023-02-21T01:52:47.252Z,10.63
2023-02-21T01:56:08.254Z,11.07
2023-02-21T01:59:30.214Z,10.57
2023-02-21T02:02:56.696Z,11.40
2023-02-21T02:06:21.747Z,10.73
2023-02-21T02:09:42.605Z,10.63
2023-02-21T02:13:21.021Z,10.90
2023-02-21T02:16:34.479Z,10.90
2023-02-21T02:20:22.407Z,12.03
2023-02-21T02:23:51.306Z,10.90
2023-02-21T02:27:27.823Z,11.73
2023-02-21T02:31:09.463Z,12.13
2023-02-21T02:34:41.729Z,12.17
2023-02-21T02:37:52.061Z,12.07
2023-02-21T02:41:01.779Z,11.70
2023-02-21T02:44:10.466Z,12.20
2023-02-21T02:47:19.602Z,12.40
2023-02-21T02:50:25.728Z,12.37
2023-02-21T02:53:30.980Z,11.97
2023-02-21T02:56:36.928Z,12.00
2023-02-21T02:59:44.385Z,12.47
2023-02-21T03:03:01.907Z,12.10
2023-02-21T03:06:21.427Z,12.00
2023-02-21T03:09:30.716Z,13.50
2023-02-21T03:12:38.968Z,12.50
2023-02-21T03:15:49.560Z,12.97
2023-02-21T03:18:58.075Z,11.77
2023-02-21T03:22:06.471Z,12.53
2023-02-21T03:25:10.379Z,12.07
2023-02-21T03:28:16.647Z,11.57
2023-02-21T03:31:25.782Z,13.33
2023-02-21T03:34:28.929Z,12.13
2023-02-21T03:37:36.087Z,12.20
2023-02-21T03:40:39.245Z,11.90
2023-02-21T03:43:42.356Z,11.33
2023-02-21T03:46:45.378Z,11.43
2023-02-21T03:49:48.644Z,11.10
2023-02-21T03:52:53.482Z,11.47
2023-02-21T03:55:56.546Z,10.97
2023-02-21T03:58:59.538Z,11.03
2023-02-21T04:02:02.804Z,11.77
2023-02-21T04:05:06.280Z,11.37
2023-02-21T04:08:10.702Z,11.00
2023-02-21T04:11:13.857Z,11.37
2023-02-21T04:14:17.495Z,10.97
2023-02-21T04:17:20.532Z,9.87
2023-02-21T04:20:23.633Z,9.93
2023-02-21T04:23:28.050Z,10.07
2023-02-21T04:26:31.265Z,10.93
2023-02-21T04:29:34.363Z,10.73
2023-02-21T04:32:37.413Z,11.57
2023-02-21T04:35:41.661Z,11.10
2023-02-21T04:38:46.032Z,10.53
2023-02-21T04:41:48.969Z,10.77
2023-02-21T04:45:00.000Z,11.03
2023-02-21T04:48:03.420Z,11.37
2023-02-21T04:51:15.140Z,11.07
2023-02-21T04:54:19.950Z,10.97
2023-02-21T04:57:23.043Z,11.47
2023-02-21T05:00:26.025Z,11.23
2023-02-21T05:03:29.049Z,10.80
2023-02-21T05:06:32.972Z,11.87
2023-02-21T05:09:37.297Z,11.43
2023-02-21T05:12:40.560Z,11.77
2023-02-21T05:15:44.000Z,11.13
2023-02-21T05:18:48.531Z,12.83
2023-02-21T05:21:51.560Z,13.60
2023-02-21T05:24:55.905Z,13.37
2023-02-21T05:27:59.030Z,12.60
2023-02-21T05:31:02.271Z,11.83
2023-02-21T05:34:05.410Z,11.93
2023-02-21T05:37:08.394Z,11.37
2023-02-21T05:40:14.647Z,12.40
2023-02-21T05:43:19.893Z,12.47
2023-02-21T05:46:25.711Z,12.63
2023-02-21T05:49:28.729Z,13.10
2023-02-21T05:52:32.081Z,12.40
2023-02-21T05:55:36.402Z,12.97
2023-02-21T05:58:41.829Z,12.67
2023-02-21T06:01:44.799Z,12.33
2023-02-21T06:04:47.678Z,12.13
2023-02-21T06:07:51.180Z,12.23
2023-02-21T06:10:55.854Z,12.13
2023-02-21T06:14:00.890Z,12.80
2023-02-21T06:17:03.879Z,12.80
2023-02-21T06:20:08.726Z,12.97
2023-02-21T06:23:12.845Z,12.23
2023-02-21T06:26:18.782Z,11.83
2023-02-21T06:29:21.745Z,10.83
2023-02-21T06:32:24.946Z,10.80
2023-02-21T06:35:28.014Z,10.50
2023-02-21T06:38:31.949Z,9.27
2023-02-21T06:41:36.368Z,8.70
2023-02-21T06:44:39.368Z,8.87
2023-02-21T06:47:42.423Z,8.63
2023-02-21T06:50:45.850Z,9.13
2023-02-21T06:53:51.275Z,8.50
2023-02-21T06:56:55.764Z,8.93
2023-02-21T06:59:58.798Z,8.33
2023-02-21T07:03:01.749Z,8.60
2023-02-21T07:06:04.908Z,7.80
2023-02-21T07:09:07.826Z,7.60
2023-02-21T07:12:12.190Z,7.37
2023-02-21T07:15:15.102Z,7.40
2023-02-21T07:18:18.320Z,7.70
2023-02-21T07:21:22.829Z,8.13
2023-02-21T07:24:25.729Z,7.37
2023-02-21T07:27:30.211Z,6.83
2023-02-21T07:30:33.409Z,6.93
2023-02-21T07:33:36.504Z,7.10
2023-02-21T07:36:40.403Z,6.80
2023-02-21T07:39:43.447Z,6.50
2023-02-21T07:42:48.156Z,5.67
2023-02-21T07:45:51.135Z,6.37
2023-02-21T07:48:54.150Z,5.73
2023-02-21T07:51:57.343Z,5.00
2023-02-21T07:55:00.357Z,5.33
2023-02-21T07:58:04.785Z,4.90
2023-02-21T08:01:08.308Z,4.47
2023-02-21T08:04:11.451Z,4.67
2023-02-21T08:07:14.466Z,4.70
2023-02-21T08:10:23.443Z,4.43
2023-02-21T08:13:27.830Z,4.90
2023-02-21T08:16:32.181Z,4.63
2023-02-21T08:19:37.935Z,4.20
2023-02-21T08:22:41.030Z,4.40
2023-02-21T08:25:44.014Z,4.03
2023-02-21T08:28:48.650Z,3.23
2023-02-21T08:31:51.645Z,3.37
2023-02-21T08:34:54.676Z,3.00
2023-02-21T08:38:02.617Z,3.10
2023-02-21T08:41:06.166Z,3.20
2023-02-21T08:44:11.106Z,2.90
2023-02-21T08:47:15.283Z,2.90
2023-02-21T08:50:19.427Z,2.73
2023-02-21T08:53:22.351Z,2.73
2023-02-21T08:56:26.817Z,2.97
2023-02-21T08:59:33.547Z,2.80
2023-02-21T09:02:39.864Z,3.07
2023-02-21T09:05:42.784Z,2.60
2023-02-21T09:08:45.855Z,2.57
2023-02-21T09:11:49.417Z,2.57
2023-02-21T09:14:53.771Z,2.80
2023-02-21T09:17:57.309Z,2.60
2023-02-21T09:21:00.354Z,2.90
2023-02-21T09:24:05.526Z,2.83
2023-02-21T09:27:08.547Z,2.90
2023-02-21T09:30:15.982Z,2.73
2023-02-21T09:33:19.287Z,3.50
2023-02-21T09:36:24.056Z,3.40
2023-02-21T09:39:27.082Z,3.10
2023-02-21T09:42:32.276Z,3.30
2023-02-21T09:45:38.474Z,3.63
2023-02-21T09:48:44.628Z,3.30
2023-02-21T09:51:49.191Z,2.97
2023-02-21T09:54:58.340Z,3.47
2023-02-21T09:58:01.852Z,3.90
2023-02-21T10:01:14.438Z,3.67
2023-02-21T10:04:30.394Z,3.50
2023-02-21T10:07:42.150Z,3.03
2023-02-21T10:10:48.393Z,3.60
2023-02-21T10:14:00.667Z,3.23
2023-02-21T10:17:13.245Z,3.97
2023-02-21T10:20:22.206Z,3.63
2023-02-21T10:23:32.607Z,3.33
2023-02-21T10:26:41.020Z,3.53
2023-02-21T10:29:50.726Z,3.60
2023-02-21T10:32:55.139Z,3.50
2023-02-21T10:35:58.057Z,3.30
2023-02-21T10:39:07.580Z,4.00
2023-02-21T10:42:19.069Z,3.50
2023-02-21T10:45:30.306Z,4.13
2023-02-21T10:48:37.711Z,3.47
2023-02-21T10:51:40.757Z,3.73
2023-02-21T10:55:00.313Z,3.40
2023-02-21T10:58:09.859Z,3.60
2023-02-21T11:01:15.666Z,3.10
2023-02-21T11:04:31.896Z,3.17
2023-02-21T11:07:35.838Z,3.27
2023-02-21T11:10:41.731Z,3.20
2023-02-21T11:13:44.869Z,3.37
2023-02-21T11:17:14.161Z,3.37
2023-02-21T11:20:23.523Z,3.03
2023-02-21T11:23:29.511Z,3.27
2023-02-21T11:26:37.660Z,3.30
2023-02-21T11:29:45.607Z,3.23
2023-02-21T11:32:53.479Z,3.57
2023-02-21T11:36:12.489Z,2.93
2023-02-21T11:39:18.717Z,4.00
2023-02-21T11:42:30.453Z,3.60
2023-02-21T11:45:34.227Z,3.40
2023-02-21T11:48:44.356Z,3.60
2023-02-21T11:51:53.352Z,3.47
2023-02-21T11:54:56.406Z,3.60
2023-02-21T11:58:07.668Z,3.50
2023-02-21T12:01:16.678Z,4.00
2023-02-21T12:04:35.776Z,3.60
2023-02-21T12:07:48.706Z,3.63
2023-02-21T12:11:01.504Z,3.17
2023-02-21T12:14:24.649Z,3.90
2023-02-21T12:17:44.805Z,3.63
2023-02-21T12:21:08.145Z,3.97
2023-02-21T12:24:27.331Z,3.73
2023-02-21T12:27:46.377Z,4.20
2023-02-21T12:31:19.484Z,3.70
2023-02-21T12:34:36.458Z,4.40
2023-02-21T12:37:47.359Z,3.77
2023-02-21T12:41:00.564Z,4.17
2023-02-21T12:44:14.662Z,4.10
2023-02-21T12:47:21.052Z,4.20
2023-02-21T12:50:28.471Z,3.60
2023-02-21T12:53:37.002Z,3.57
2023-02-21T12:56:46.108Z,4.00
2023-02-21T12:59:59.442Z,3.37
2023-02-21T13:03:18.726Z,3.90
2023-02-21T13:06:30.514Z,4.00
2023-02-21T13:09:37.805Z,4.27
2023-02-21T13:12:47.672Z,4.27
2023-02-21T13:15:54.025Z,3.50
2023-02-21T13:19:02.632Z,3.90
2023-02-21T13:22:46.377Z,4.33
2023-02-21T13:26:01.374Z,4.33
2023-02-21T13:29:15.538Z,3.80
2023-02-21T13:32:21.084Z,4.13
2023-02-21T13:35:30.817Z,3.73
2023-02-21T13:38:34.169Z,3.50
2023-02-21T13:41:39.647Z,4.10
2023-02-21T13:44:47.272Z,4.10
2023-02-21T13:48:22.123Z,4.40
2023-02-21T13:51:48.156Z,4.57
2023-02-21T13:55:10.944Z,3.80
2023-02-21T13:58:35.895Z,4.03
2023-02-21T14:01:44.438Z,4.77
2023-02-21T14:05:03.850Z,4.43
2023-02-21T14:08:09.142Z,4.37
2023-02-21T14:11:20.478Z,5.13
2023-02-21T14:14:27.162Z,4.20
2023-02-21T14:17:31.663Z,4.27
2023-02-21T14:20:37.533Z,4.23
2023-02-21T14:23:46.727Z,4.50
2023-02-21T14:26:56.697Z,3.90
2023-02-21T14:30:33.390Z,4.33
2023-02-21T14:33:37.976Z,4.27
2023-02-21T14:36:41.981Z,4.97
2023-02-21T14:39:51.191Z,4.33
2023-02-21T14:43:07.244Z,4.97
2023-02-21T14:46:43.414Z,4.07
2023-02-21T14:50:18.386Z,4.60
2023-02-21T14:53:51.706Z,5.10
2023-02-21T14:57:23.140Z,4.73
2023-02-21T15:00:34.230Z,5.10
2023-02-21T15:03:43.364Z,4.80
2023-02-21T15:07:01.379Z,5.63
2023-02-21T15:10:12.759Z,4.73
2023-02-21T15:13:24.527Z,4.80
2023-02-21T15:16:32.485Z,6.00
2023-02-21T15:19:36.757Z,5.00
2023-02-21T15:22:41.137Z,5.23
2023-02-21T15:25:44.538Z,5.57
2023-02-21T15:28:47.460Z,5.00
2023-02-21T15:31:53.317Z,4.87
2023-02-21T15:34:56.425Z,5.07
2023-02-21T15:38:03.838Z,4.30
2023-02-21T15:41:11.013Z,4.47
2023-02-21T15:44:19.792Z,4.70
2023-02-21T15:47:24.419Z,5.50
2023-02-21T15:50:36.215Z,4.70
2023-02-21T15:53:40.715Z,5.63
2023-02-21T15:56:44.226Z,5.03
2023-02-21T15:59:47.215Z,4.40
2023-02-21T16:02:50.207Z,4.33
2023-02-21T16:05:53.609Z,4.63
2023-02-21T16:09:02.237Z,4.70
2023-02-21T16:12:08.672Z,4.60
2023-02-21T16:15:24.904Z,6.07
2023-02-21T16:18:27.952Z,5.63
2023-02-21T16:21:31.367Z,5.10
2023-02-21T16:24:35.753Z,4.87
2023-02-21T16:27:39.757Z,5.03
2023-02-21T16:30:42.801Z,5.20
2023-02-21T16:33:45.851Z,5.23
2023-02-21T16:36:54.664Z,5.43
2023-02-21T16:39:59.096Z,5.10
2023-02-21T16:43:03.188Z,5.90
2023-02-21T16:46:06.426Z,5.03
2023-02-21T16:49:11.419Z,6.20
2023-02-21T16:52:17.464Z,4.80
2023-02-21T16:55:22.116Z,4.77
2023-02-21T16:58:29.081Z,4.97
2023-02-21T17:01:34.359Z,5.30
2023-02-21T17:04:38.553Z,5.40
2023-02-21T17:07:41.652Z,5.23
2023-02-21T17:10:46.134Z,5.77
2023-02-21T17:13:49.110Z,5.40
2023-02-21T17:16:52.373Z,6.17
2023-02-21T17:19:55.370Z,5.23
2023-02-21T17:22:59.854Z,4.80
2023-02-21T17:26:04.534Z,5.90
2023-02-21T17:29:08.035Z,5.37
2023-02-21T17:32:11.188Z,5.60
2023-02-21T17:35:14.825Z,5.90
2023-02-21T17:38:17.791Z,5.30
2023-02-21T17:41:22.950Z,6.13
2023-02-21T17:44:28.098Z,5.60
2023-02-21T17:47:31.371Z,6.17
2023-02-21T17:50:34.722Z,5.70
2023-02-21T17:53:37.722Z,5.47
2023-02-21T17:56:42.272Z,5.77
2023-02-21T17:59:45.486Z,6.27
2023-02-21T18:02:49.198Z,5.20
2023-02-21T18:05:52.463Z,6.07
2023-02-21T18:08:55.898Z,6.23
2023-02-21T18:12:01.712Z,5.20
2023-02-21T18:15:05.555Z,5.43
2023-02-21T18:18:08.609Z,5.60
2023-02-21T18:21:11.806Z,5.87
2023-02-21T18:24:16.430Z,6.20
2023-02-21T18:27:21.201Z,5.97
2023-02-21T18:30:24.402Z,6.33
2023-02-21T18:33:28.163Z,5.83
2023-02-21T18:36:31.246Z,5.30
2023-02-21T18:39:34.150Z,6.13
2023-02-21T18:42:38.590Z,6.13
2023-02-21T18:45:41.528Z,5.23
2023-02-21T18:48:46.493Z,5.77
2023-02-21T18:51:49.680Z,6.13
2023-02-21T18:54:53.033Z,6.70
2023-02-21T18:57:57.860Z,6.27
2023-02-21T19:01:01.382Z,6.87
2023-02-21T19:04:04.687Z,6.70
2023-02-21T19:07:08.959Z,6.43
2023-02-21T19:10:12.686Z,6.47
2023-02-21T19:13:17.326Z,6.90
2023-02-21T19:16:20.766Z,6.43
2023-02-21T19:19:24.158Z,6.30
2023-02-21T19:22:27.461Z,7.13
2023-02-21T19:25:31.222Z,6.83
2023-02-21T19:28:37.414Z,6.20
2023-02-21T19:31:40.826Z,6.17
2023-02-21T19:34:44.407Z,6.47
2023-02-21T19:37:47.834Z,7.03
2023-02-21T19:40:50.915Z,6.50
2023-02-21T19:43:55.369Z,7.17
2023-02-21T19:46:58.916Z,6.87
2023-02-21T19:50:02.078Z,7.30
2023-02-21T19:53:05.668Z,5.90
2023-02-21T19:56:08.665Z,7.20
2023-02-21T19:59:13.608Z,6.77
2023-02-21T20:02:17.038Z,7.13
2023-02-21T20:05:20.254Z,7.13
2023-02-21T20:08:23.644Z,6.67
2023-02-21T20:11:26.742Z,6.47
2023-02-21T20:14:32.088Z,6.60
2023-02-21T20:17:36.538Z,6.73
2023-02-21T20:20:45.281Z,6.83
2023-02-21T20:23:48.564Z,6.40
2023-02-21T20:26:52.281Z,5.97
2023-02-21T20:29:56.743Z,6.43
2023-02-21T20:33:01.330Z,6.37
2023-02-21T20:36:05.031Z,7.10
2023-02-21T20:39:10.240Z,6.70
2023-02-21T20:42:13.264Z,7.07
2023-02-21T20:45:18.631Z,5.93
2023-02-21T20:48:25.551Z,7.23
2023-02-21T20:51:33.342Z,6.20
2023-02-21T20:54:36.348Z,5.90
2023-02-21T20:57:39.317Z,6.20
2023-02-21T21:00:43.625Z,6.27
2023-02-21T21:03:46.794Z,6.17
2023-02-21T21:06:50.913Z,5.63
2023-02-21T21:09:54.372Z,5.67
2023-02-21T21:12:58.064Z,5.27
2023-02-21T21:16:02.428Z,5.90
2023-02-21T21:19:05.504Z,5.60
2023-02-21T21:22:10.663Z,5.83
2023-02-21T21:25:14.450Z,5.17
2023-02-21T21:28:17.475Z,5.97
2023-02-21T21:31:23.538Z,5.80
2023-02-21T21:34:28.665Z,6.67
2023-02-21T21:37:31.955Z,6.00
2023-02-21T21:40:34.895Z,6.33
2023-02-21T21:43:37.990Z,5.93
2023-02-21T21:46:47.433Z,6.80
2023-02-21T21:49:50.919Z,5.87
2023-02-21T21:52:57.856Z,6.30
2023-02-21T21:56:04.834Z,6.00
2023-02-21T21:59:09.339Z,6.33
2023-02-21T22:02:15.025Z,6.10
2023-02-21T22:05:21.032Z,6.50
2023-02-21T22:08:26.504Z,5.60
2023-02-21T22:11:29.435Z,6.97
2023-02-21T22:14:32.648Z,5.07
2023-02-21T22:17:37.413Z,6.13
2023-02-21T22:20:40.389Z,5.97
2023-02-21T22:23:44.697Z,5.93
2023-02-21T22:26:48.235Z,5.27
2023-02-21T22:29:52.369Z,5.57
2023-02-21T22:32:56.726Z,5.63
2023-02-21T22:35:59.882Z,7.07
2023-02-21T22:39:08.530Z,6.07
2023-02-21T22:42:12.729Z,6.27
2023-02-21T22:45:17.198Z,5.73
2023-02-21T22:48:22.624Z,6.33
2023-02-21T22:51:27.650Z,6.27
2023-02-21T22:54:31.832Z,5.70
2023-02-21T22:57:35.625Z,6.13
2023-02-21T23:00:39.260Z,6.90
2023-02-21T23:03:43.590Z,5.50
2023-02-21T23:06:46.778Z,5.10
2023-02-21T23:09:49.763Z,4.93
2023-02-21T23:12:54.808Z,5.87
2023-02-21T23:15:58.678Z,5.87
2023-02-21T23:19:06.824Z,5.07
2023-02-21T23:22:10.039Z,5.00
2023-02-21T23:25:20.673Z,4.83
2023-02-21T23:28:26.596Z,4.40
2023-02-21T23:31:30.998Z,6.20
2023-02-21T23:34:40.994Z,5.00
2023-02-21T23:37:44.625Z,5.90
2023-02-21T23:40:51.836Z,4.53
2023-02-21T23:43:54.805Z,4.43
2023-02-21T23:46:59.289Z,4.73
2023-02-21T23:50:04.083Z,5.60
2023-02-21T23:53:07.284Z,5.70
2023-02-21T23:56:13.996Z,5.90
2023-02-21T23:59:16.957Z,5.90
